sensor_id;sensor_type;location;lat;lon;timestamp;P1;durP1;ratioP1;P2;durP2;ratioP2
35644;SDS011;21764;52.042;6.830;2022-08-19T00:02:13;15.38;;;12.32;;
35644;SDS011;21764;52.042;6.830;2022-08-19T00:07:14;17.17;;;13.05;;
35644;SDS011;21764;52.042;6.830;2022-08-19T00:12:15;16.40;;;11.90;;
35644;SDS011;21764;52.042;6.830;2022-08-19T00:17:16;14.30;;;11.43;;
35644;SDS011;21764;52.042;6.830;2022-08-19T00:22:17;18.40;;;12.68;;
35644;SDS011;21764;52.042;6.830;2022-08-19T00:27:18;17.73;;;12.50;;
35644;SDS011;21764;52.042;6.830;2022-08-19T00:32:18;17.55;;;13.07;;
35644;SDS011;21764;52.042;6.830;2022-08-19T00:37:23;18.13;;;13.63;;
35644;SDS011;21764;52.042;6.830;2022-08-19T00:42:25;20.33;;;14.32;;
35644;SDS011;21764;52.042;6.830;2022-08-19T00:47:28;20.55;;;15.35;;
35644;SDS011;21764;52.042;6.830;2022-08-19T00:52:33;21.23;;;15.80;;
35644;SDS011;21764;52.042;6.830;2022-08-19T00:57:38;20.77;;;16.40;;
35644;SDS011;21764;52.042;6.830;2022-08-19T01:02:40;24.05;;;17.10;;
35644;SDS011;21764;52.042;6.830;2022-08-19T01:07:42;20.83;;;16.98;;
35644;SDS011;21764;52.042;6.830;2022-08-19T01:12:44;25.27;;;16.83;;
35644;SDS011;21764;52.042;6.830;2022-08-19T01:17:45;24.77;;;17.83;;
35644;SDS011;21764;52.042;6.830;2022-08-19T01:22:48;26.58;;;19.08;;
35644;SDS011;21764;52.042;6.830;2022-08-19T01:27:51;24.60;;;18.98;;
35644;SDS011;21764;52.042;6.830;2022-08-19T01:32:54;23.98;;;19.02;;
35644;SDS011;21764;52.042;6.830;2022-08-19T01:37:57;27.20;;;20.90;;
35644;SDS011;21764;52.042;6.830;2022-08-19T01:43:02;27.23;;;19.52;;
35644;SDS011;21764;52.042;6.830;2022-08-19T01:48:04;24.75;;;19.65;;
35644;SDS011;21764;52.042;6.830;2022-08-19T01:53:06;31.10;;;21.63;;
35644;SDS011;21764;52.042;6.830;2022-08-19T01:58:11;34.58;;;22.25;;
35644;SDS011;21764;52.042;6.830;2022-08-19T02:03:15;30.95;;;21.60;;
35644;SDS011;21764;52.042;6.830;2022-08-19T02:08:16;29.40;;;22.02;;
35644;SDS011;21764;52.042;6.830;2022-08-19T02:13:16;28.92;;;21.50;;
35644;SDS011;21764;52.042;6.830;2022-08-19T02:18:17;27.23;;;20.80;;
35644;SDS011;21764;52.042;6.830;2022-08-19T02:23:18;31.58;;;22.65;;
35644;SDS011;21764;52.042;6.830;2022-08-19T02:28:18;34.65;;;22.45;;
35644;SDS011;21764;52.042;6.830;2022-08-19T02:33:19;27.35;;;19.92;;
35644;SDS011;21764;52.042;6.830;2022-08-19T02:38:20;28.98;;;21.63;;
35644;SDS011;21764;52.042;6.830;2022-08-19T02:43:27;29.60;;;21.35;;
35644;SDS011;21764;52.042;6.830;2022-08-19T02:48:29;29.83;;;23.17;;
35644;SDS011;21764;52.042;6.830;2022-08-19T02:53:32;30.55;;;21.65;;
35644;SDS011;21764;52.042;6.830;2022-08-19T02:58:33;26.77;;;20.50;;
35644;SDS011;21764;52.042;6.830;2022-08-19T03:03:34;25.98;;;20.27;;
35644;SDS011;21764;52.042;6.830;2022-08-19T03:08:35;29.05;;;20.67;;
35644;SDS011;21764;52.042;6.830;2022-08-19T03:13:36;32.78;;;21.58;;
35644;SDS011;21764;52.042;6.830;2022-08-19T03:18:37;26.15;;;21.25;;
35644;SDS011;21764;52.042;6.830;2022-08-19T03:23:38;29.25;;;21.85;;
35644;SDS011;21764;52.042;6.830;2022-08-19T03:28:39;31.55;;;23.00;;
35644;SDS011;21764;52.042;6.830;2022-08-19T03:33:40;34.97;;;21.48;;
35644;SDS011;21764;52.042;6.830;2022-08-19T03:38:45;36.75;;;23.13;;
35644;SDS011;21764;52.042;6.830;2022-08-19T03:43:48;29.88;;;22.42;;
35644;SDS011;21764;52.042;6.830;2022-08-19T03:48:50;30.35;;;21.80;;
35644;SDS011;21764;52.042;6.830;2022-08-19T03:53:55;27.42;;;20.92;;
35644;SDS011;21764;52.042;6.830;2022-08-19T03:58:57;28.08;;;22.70;;
35644;SDS011;21764;52.042;6.830;2022-08-19T04:03:59;32.22;;;23.17;;
35644;SDS011;21764;52.042;6.830;2022-08-19T04:09:02;30.50;;;23.25;;
35644;SDS011;21764;52.042;6.830;2022-08-19T04:14:04;36.13;;;24.53;;
35644;SDS011;21764;52.042;6.830;2022-08-19T04:19:05;34.58;;;24.77;;
35644;SDS011;21764;52.042;6.830;2022-08-19T04:24:11;39.20;;;25.63;;
35644;SDS011;21764;52.042;6.830;2022-08-19T04:29:14;34.70;;;26.17;;
35644;SDS011;21764;52.042;6.830;2022-08-19T04:34:18;33.25;;;24.23;;
35644;SDS011;21764;52.042;6.830;2022-08-19T04:39:25;30.55;;;22.80;;
35644;SDS011;21764;52.042;6.830;2022-08-19T04:44:47;29.85;;;22.70;;
35644;SDS011;21764;52.042;6.830;2022-08-19T04:49:48;29.27;;;21.40;;
35644;SDS011;21764;52.042;6.830;2022-08-19T04:54:49;30.60;;;21.38;;
35644;SDS011;21764;52.042;6.830;2022-08-19T04:59:53;32.17;;;20.55;;
35644;SDS011;21764;52.042;6.830;2022-08-19T05:04:58;30.50;;;21.17;;
35644;SDS011;21764;52.042;6.830;2022-08-19T05:10:00;29.40;;;21.60;;
35644;SDS011;21764;52.042;6.830;2022-08-19T05:15:02;33.22;;;20.52;;
35644;SDS011;21764;52.042;6.830;2022-08-19T05:20:05;24.10;;;19.08;;
35644;SDS011;21764;52.042;6.830;2022-08-19T05:25:24;26.52;;;17.13;;
35644;SDS011;21764;52.042;6.830;2022-08-19T05:30:25;19.48;;;15.73;;
35644;SDS011;21764;52.042;6.830;2022-08-19T05:35:26;18.55;;;15.85;;
35644;SDS011;21764;52.042;6.830;2022-08-19T05:40:28;19.20;;;16.02;;
35644;SDS011;21764;52.042;6.830;2022-08-19T05:45:29;22.50;;;15.70;;
35644;SDS011;21764;52.042;6.830;2022-08-19T05:50:30;20.23;;;15.88;;
35644;SDS011;21764;52.042;6.830;2022-08-19T05:55:31;20.83;;;15.27;;
35644;SDS011;21764;52.042;6.830;2022-08-19T06:00:32;19.25;;;15.13;;
35644;SDS011;21764;52.042;6.830;2022-08-19T06:05:33;22.65;;;14.63;;
35644;SDS011;21764;52.042;6.830;2022-08-19T06:10:33;22.73;;;14.85;;
35644;SDS011;21764;52.042;6.830;2022-08-19T06:15:36;21.25;;;14.90;;
35644;SDS011;21764;52.042;6.830;2022-08-19T06:20:37;19.83;;;15.30;;
35644;SDS011;21764;52.042;6.830;2022-08-19T06:25:38;17.90;;;14.98;;
35644;SDS011;21764;52.042;6.830;2022-08-19T06:30:39;17.70;;;15.35;;
35644;SDS011;21764;52.042;6.830;2022-08-19T06:35:41;22.98;;;16.88;;
35644;SDS011;21764;52.042;6.830;2022-08-19T06:40:42;23.95;;;15.45;;
35644;SDS011;21764;52.042;6.830;2022-08-19T06:45:42;20.05;;;16.50;;
35644;SDS011;21764;52.042;6.830;2022-08-19T06:50:43;21.00;;;15.45;;
35644;SDS011;21764;52.042;6.830;2022-08-19T06:55:44;20.15;;;14.05;;
35644;SDS011;21764;52.042;6.830;2022-08-19T07:00:45;24.90;;;14.48;;
35644;SDS011;21764;52.042;6.830;2022-08-19T07:05:46;23.15;;;13.38;;
35644;SDS011;21764;52.042;6.830;2022-08-19T07:10:47;21.73;;;12.65;;
35644;SDS011;21764;52.042;6.830;2022-08-19T07:15:49;17.30;;;11.48;;
35644;SDS011;21764;52.042;6.830;2022-08-19T07:20:50;14.45;;;11.88;;
35644;SDS011;21764;52.042;6.830;2022-08-19T07:25:50;19.50;;;10.68;;
35644;SDS011;21764;52.042;6.830;2022-08-19T07:30:51;14.25;;;11.13;;
35644;SDS011;21764;52.042;6.830;2022-08-19T07:35:52;14.98;;;10.05;;
35644;SDS011;21764;52.042;6.830;2022-08-19T07:40:54;15.23;;;11.68;;
35644;SDS011;21764;52.042;6.830;2022-08-19T07:45:55;17.05;;;11.02;;
35644;SDS011;21764;52.042;6.830;2022-08-19T07:50:58;14.40;;;11.00;;
35644;SDS011;21764;52.042;6.830;2022-08-19T07:56:04;13.70;;;9.90;;
35644;SDS011;21764;52.042;6.830;2022-08-19T08:01:06;13.55;;;11.05;;
35644;SDS011;21764;52.042;6.830;2022-08-19T08:06:08;17.00;;;10.05;;
35644;SDS011;21764;52.042;6.830;2022-08-19T08:11:27;12.45;;;9.30;;
35644;SDS011;21764;52.042;6.830;2022-08-19T08:16:28;11.13;;;9.00;;
35644;SDS011;21764;52.042;6.830;2022-08-19T08:21:31;11.60;;;9.18;;
35644;SDS011;21764;52.042;6.830;2022-08-19T08:26:32;12.80;;;10.32;;
35644;SDS011;21764;52.042;6.830;2022-08-19T08:31:33;17.23;;;11.77;;
35644;SDS011;21764;52.042;6.830;2022-08-19T08:36:37;17.20;;;13.48;;
35644;SDS011;21764;52.042;6.830;2022-08-19T08:47:04;15.23;;;13.65;;
35644;SDS011;21764;52.042;6.830;2022-08-19T08:52:15;18.10;;;13.20;;
35644;SDS011;21764;52.042;6.830;2022-08-19T08:57:24;18.27;;;12.50;;
35644;SDS011;21764;52.042;6.830;2022-08-19T09:02:29;17.23;;;13.43;;
35644;SDS011;21764;52.042;6.830;2022-08-19T09:18:20;17.02;;;12.73;;
35644;SDS011;21764;52.042;6.830;2022-08-19T09:23:21;12.70;;;9.33;;
35644;SDS011;21764;52.042;6.830;2022-08-19T09:33:23;10.95;;;7.72;;
35644;SDS011;21764;52.042;6.830;2022-08-19T09:38:24;10.33;;;8.60;;
35644;SDS011;21764;52.042;6.830;2022-08-19T09:43:24;11.00;;;9.83;;
35644;SDS011;21764;52.042;6.830;2022-08-19T09:48:28;14.07;;;11.52;;
35644;SDS011;21764;52.042;6.830;2022-08-19T09:53:28;18.43;;;13.30;;
35644;SDS011;21764;52.042;6.830;2022-08-19T09:58:29;15.80;;;14.17;;
35644;SDS011;21764;52.042;6.830;2022-08-19T10:03:30;15.97;;;12.53;;
35644;SDS011;21764;52.042;6.830;2022-08-19T10:08:34;16.30;;;14.23;;
35644;SDS011;21764;52.042;6.830;2022-08-19T10:13:36;13.70;;;12.23;;
35644;SDS011;21764;52.042;6.830;2022-08-19T10:18:38;16.87;;;13.97;;
35644;SDS011;21764;52.042;6.830;2022-08-19T10:23:43;17.38;;;12.52;;
35644;SDS011;21764;52.042;6.830;2022-08-19T10:28:46;11.48;;;10.32;;
35644;SDS011;21764;52.042;6.830;2022-08-19T10:33:47;15.45;;;13.52;;
35644;SDS011;21764;52.042;6.830;2022-08-19T10:38:49;16.25;;;14.45;;
35644;SDS011;21764;52.042;6.830;2022-08-19T10:43:54;13.80;;;10.90;;
35644;SDS011;21764;52.042;6.830;2022-08-19T10:48:58;14.02;;;10.75;;
35644;SDS011;21764;52.042;6.830;2022-08-19T10:59:01;20.90;;;9.27;;
35644;SDS011;21764;52.042;6.830;2022-08-19T11:04:04;17.77;;;11.50;;
35644;SDS011;21764;52.042;6.830;2022-08-19T11:09:05;11.88;;;10.52;;
35644;SDS011;21764;52.042;6.830;2022-08-19T11:14:08;16.60;;;10.23;;
35644;SDS011;21764;52.042;6.830;2022-08-19T11:19:11;13.73;;;9.25;;
35644;SDS011;21764;52.042;6.830;2022-08-19T11:24:15;11.48;;;8.85;;
35644;SDS011;21764;52.042;6.830;2022-08-19T11:29:20;14.10;;;8.27;;
35644;SDS011;21764;52.042;6.830;2022-08-19T11:34:22;18.33;;;14.13;;
35644;SDS011;21764;52.042;6.830;2022-08-19T11:39:26;15.98;;;11.73;;
35644;SDS011;21764;52.042;6.830;2022-08-19T11:44:28;21.65;;;7.40;;
35644;SDS011;21764;52.042;6.830;2022-08-19T11:49:30;13.90;;;11.95;;
35644;SDS011;21764;52.042;6.830;2022-08-19T11:54:30;12.65;;;9.98;;
35644;SDS011;21764;52.042;6.830;2022-08-19T11:59:32;14.52;;;7.30;;
35644;SDS011;21764;52.042;6.830;2022-08-19T12:04:32;12.35;;;8.85;;
35644;SDS011;21764;52.042;6.830;2022-08-19T12:09:34;10.57;;;7.07;;
35644;SDS011;21764;52.042;6.830;2022-08-19T12:14:35;10.57;;;7.03;;
35644;SDS011;21764;52.042;6.830;2022-08-19T12:19:36;12.90;;;7.32;;
35644;SDS011;21764;52.042;6.830;2022-08-19T12:24:37;12.57;;;7.63;;
35644;SDS011;21764;52.042;6.830;2022-08-19T12:29:38;13.90;;;7.32;;
35644;SDS011;21764;52.042;6.830;2022-08-19T12:34:38;10.68;;;6.53;;
35644;SDS011;21764;52.042;6.830;2022-08-19T12:39:40;10.40;;;7.05;;
35644;SDS011;21764;52.042;6.830;2022-08-19T12:44:42;15.27;;;6.75;;
35644;SDS011;21764;52.042;6.830;2022-08-19T12:49:43;10.57;;;6.95;;
35644;SDS011;21764;52.042;6.830;2022-08-19T12:54:46;16.52;;;6.78;;
35644;SDS011;21764;52.042;6.830;2022-08-19T12:59:47;9.30;;;6.50;;
35644;SDS011;21764;52.042;6.830;2022-08-19T13:04:53;12.48;;;6.63;;
35644;SDS011;21764;52.042;6.830;2022-08-19T13:09:53;16.73;;;9.95;;
35644;SDS011;21764;52.042;6.830;2022-08-19T13:14:54;17.02;;;9.75;;
35644;SDS011;21764;52.042;6.830;2022-08-19T13:19:55;20.83;;;9.70;;
35644;SDS011;21764;52.042;6.830;2022-08-19T13:24:56;25.65;;;13.00;;
35644;SDS011;21764;52.042;6.830;2022-08-19T13:29:57;19.48;;;12.90;;
35644;SDS011;21764;52.042;6.830;2022-08-19T13:35:16;22.60;;;12.30;;
35644;SDS011;21764;52.042;6.830;2022-08-19T13:40:18;23.27;;;12.85;;
35644;SDS011;21764;52.042;6.830;2022-08-19T13:45:23;22.63;;;13.43;;
35644;SDS011;21764;52.042;6.830;2022-08-19T13:50:28;24.95;;;13.48;;
35644;SDS011;21764;52.042;6.830;2022-08-19T13:55:31;18.42;;;10.40;;
35644;SDS011;21764;52.042;6.830;2022-08-19T14:00:34;22.42;;;10.15;;
35644;SDS011;21764;52.042;6.830;2022-08-19T14:05:37;18.65;;;10.02;;
35644;SDS011;21764;52.042;6.830;2022-08-19T14:10:38;16.27;;;8.35;;
35644;SDS011;21764;52.042;6.830;2022-08-19T14:15:39;14.23;;;7.50;;
35644;SDS011;21764;52.042;6.830;2022-08-19T14:20:40;17.92;;;7.70;;
35644;SDS011;21764;52.042;6.830;2022-08-19T14:25:41;12.85;;;6.22;;
35644;SDS011;21764;52.042;6.830;2022-08-19T14:30:41;11.70;;;6.07;;
35644;SDS011;21764;52.042;6.830;2022-08-19T14:35:44;9.65;;;6.05;;
35644;SDS011;21764;52.042;6.830;2022-08-19T14:40:45;13.20;;;6.32;;
35644;SDS011;21764;52.042;6.830;2022-08-19T14:45:45;11.25;;;4.90;;
35644;SDS011;21764;52.042;6.830;2022-08-19T14:50:46;12.48;;;4.20;;
35644;SDS011;21764;52.042;6.830;2022-08-19T14:55:47;10.70;;;4.97;;
35644;SDS011;21764;52.042;6.830;2022-08-19T15:00:47;13.00;;;6.55;;
35644;SDS011;21764;52.042;6.830;2022-08-19T15:05:48;12.18;;;5.63;;
35644;SDS011;21764;52.042;6.830;2022-08-19T15:10:49;11.18;;;6.20;;
35644;SDS011;21764;52.042;6.830;2022-08-19T15:15:49;13.48;;;6.15;;
35644;SDS011;21764;52.042;6.830;2022-08-19T15:20:51;15.38;;;8.20;;
35644;SDS011;21764;52.042;6.830;2022-08-19T15:25:52;15.40;;;8.02;;
35644;SDS011;21764;52.042;6.830;2022-08-19T15:30:54;16.77;;;8.52;;
35644;SDS011;21764;52.042;6.830;2022-08-19T15:35:55;17.15;;;9.65;;
35644;SDS011;21764;52.042;6.830;2022-08-19T15:40:57;15.85;;;8.32;;
35644;SDS011;21764;52.042;6.830;2022-08-19T15:46:18;14.45;;;9.65;;
35644;SDS011;21764;52.042;6.830;2022-08-19T15:51:21;15.23;;;9.87;;
35644;SDS011;21764;52.042;6.830;2022-08-19T15:56:22;15.07;;;9.40;;
35644;SDS011;21764;52.042;6.830;2022-08-19T16:01:23;16.90;;;9.32;;
35644;SDS011;21764;52.042;6.830;2022-08-19T16:06:52;19.23;;;9.77;;
35644;SDS011;21764;52.042;6.830;2022-08-19T16:11:56;15.63;;;9.35;;
35644;SDS011;21764;52.042;6.830;2022-08-19T16:17:01;21.55;;;10.75;;
35644;SDS011;21764;52.042;6.830;2022-08-19T16:22:02;19.65;;;10.38;;
35644;SDS011;21764;52.042;6.830;2022-08-19T16:27:04;18.05;;;11.55;;
35644;SDS011;21764;52.042;6.830;2022-08-19T16:32:06;27.95;;;11.95;;
35644;SDS011;21764;52.042;6.830;2022-08-19T16:37:10;23.75;;;15.13;;
35644;SDS011;21764;52.042;6.830;2022-08-19T16:42:11;33.00;;;20.00;;
35644;SDS011;21764;52.042;6.830;2022-08-19T16:47:13;38.92;;;24.95;;
35644;SDS011;21764;52.042;6.830;2022-08-19T16:52:16;40.20;;;24.48;;
35644;SDS011;21764;52.042;6.830;2022-08-19T16:57:17;30.15;;;21.77;;
35644;SDS011;21764;52.042;6.830;2022-08-19T17:02:19;39.10;;;22.90;;
35644;SDS011;21764;52.042;6.830;2022-08-19T17:07:22;38.58;;;23.10;;
35644;SDS011;21764;52.042;6.830;2022-08-19T17:12:23;35.65;;;21.35;;
35644;SDS011;21764;52.042;6.830;2022-08-19T17:17:25;35.35;;;22.15;;
35644;SDS011;21764;52.042;6.830;2022-08-19T17:22:26;33.97;;;21.83;;
35644;SDS011;21764;52.042;6.830;2022-08-19T17:27:28;43.35;;;22.45;;
35644;SDS011;21764;52.042;6.830;2022-08-19T17:32:29;32.05;;;22.25;;
35644;SDS011;21764;52.042;6.830;2022-08-19T17:37:34;30.80;;;21.35;;
35644;SDS011;21764;52.042;6.830;2022-08-19T17:42:36;26.67;;;18.83;;
35644;SDS011;21764;52.042;6.830;2022-08-19T17:47:37;26.10;;;17.00;;
35644;SDS011;21764;52.042;6.830;2022-08-19T17:52:38;17.40;;;12.25;;
35644;SDS011;21764;52.042;6.830;2022-08-19T17:57:39;18.00;;;14.73;;
35644;SDS011;21764;52.042;6.830;2022-08-19T18:02:44;25.52;;;16.65;;
35644;SDS011;21764;52.042;6.830;2022-08-19T18:07:50;27.20;;;20.58;;
35644;SDS011;21764;52.042;6.830;2022-08-19T18:12:52;29.90;;;22.17;;
35644;SDS011;21764;52.042;6.830;2022-08-19T18:17:53;33.92;;;22.90;;
35644;SDS011;21764;52.042;6.830;2022-08-19T18:22:54;34.25;;;23.60;;
35644;SDS011;21764;52.042;6.830;2022-08-19T18:27:56;35.78;;;25.08;;
35644;SDS011;21764;52.042;6.830;2022-08-19T18:33:00;30.48;;;23.63;;
35644;SDS011;21764;52.042;6.830;2022-08-19T18:38:02;31.95;;;24.55;;
35644;SDS011;21764;52.042;6.830;2022-08-19T18:43:23;34.85;;;24.95;;
35644;SDS011;21764;52.042;6.830;2022-08-19T18:48:27;32.72;;;23.83;;
35644;SDS011;21764;52.042;6.830;2022-08-19T18:53:46;31.67;;;24.15;;
35644;SDS011;21764;52.042;6.830;2022-08-19T18:58:48;26.77;;;22.88;;
35644;SDS011;21764;52.042;6.830;2022-08-19T19:03:50;28.48;;;22.30;;
35644;SDS011;21764;52.042;6.830;2022-08-19T19:08:52;30.45;;;21.38;;
35644;SDS011;21764;52.042;6.830;2022-08-19T19:13:54;28.88;;;22.40;;
35644;SDS011;21764;52.042;6.830;2022-08-19T19:18:55;30.13;;;22.60;;
35644;SDS011;21764;52.042;6.830;2022-08-19T19:23:55;26.83;;;21.17;;
35644;SDS011;21764;52.042;6.830;2022-08-19T19:28:56;24.88;;;21.17;;
35644;SDS011;21764;52.042;6.830;2022-08-19T19:33:57;25.05;;;20.88;;
35644;SDS011;21764;52.042;6.830;2022-08-19T19:38:58;28.20;;;22.17;;
35644;SDS011;21764;52.042;6.830;2022-08-19T19:43:58;26.98;;;21.23;;
35644;SDS011;21764;52.042;6.830;2022-08-19T19:49:00;28.90;;;21.48;;
35644;SDS011;21764;52.042;6.830;2022-08-19T19:54:01;28.00;;;22.23;;
35644;SDS011;21764;52.042;6.830;2022-08-19T19:59:02;28.60;;;22.08;;
35644;SDS011;21764;52.042;6.830;2022-08-19T20:04:03;29.55;;;22.38;;
35644;SDS011;21764;52.042;6.830;2022-08-19T20:09:03;30.00;;;23.35;;
35644;SDS011;21764;52.042;6.830;2022-08-19T20:19:24;26.95;;;21.02;;
35644;SDS011;21764;52.042;6.830;2022-08-19T20:24:27;28.48;;;22.20;;
35644;SDS011;21764;52.042;6.830;2022-08-19T20:29:34;31.13;;;22.20;;
35644;SDS011;21764;52.042;6.830;2022-08-19T20:34:34;29.42;;;22.50;;
35644;SDS011;21764;52.042;6.830;2022-08-19T20:39:36;30.10;;;23.25;;
35644;SDS011;21764;52.042;6.830;2022-08-19T20:44:37;30.38;;;23.77;;
35644;SDS011;21764;52.042;6.830;2022-08-19T20:49:37;30.10;;;23.00;;
35644;SDS011;21764;52.042;6.830;2022-08-19T20:54:38;31.40;;;24.10;;
35644;SDS011;21764;52.042;6.830;2022-08-19T20:59:39;31.65;;;23.30;;
35644;SDS011;21764;52.042;6.830;2022-08-19T21:04:39;29.98;;;24.40;;
35644;SDS011;21764;52.042;6.830;2022-08-19T21:09:40;35.20;;;25.17;;
35644;SDS011;21764;52.042;6.830;2022-08-19T21:14:41;36.22;;;26.02;;
35644;SDS011;21764;52.042;6.830;2022-08-19T21:19:42;31.70;;;22.92;;
35644;SDS011;21764;52.042;6.830;2022-08-19T21:24:43;31.83;;;23.60;;
35644;SDS011;21764;52.042;6.830;2022-08-19T21:29:44;30.00;;;21.85;;
35644;SDS011;21764;52.042;6.830;2022-08-19T21:34:44;29.83;;;22.02;;
35644;SDS011;21764;52.042;6.830;2022-08-19T21:39:46;30.27;;;21.35;;
35644;SDS011;21764;52.042;6.830;2022-08-19T21:44:47;23.58;;;19.50;;
35644;SDS011;21764;52.042;6.830;2022-08-19T21:49:47;27.38;;;20.20;;
35644;SDS011;21764;52.042;6.830;2022-08-19T21:54:48;25.73;;;19.65;;
35644;SDS011;21764;52.042;6.830;2022-08-19T21:59:49;24.02;;;18.35;;
35644;SDS011;21764;52.042;6.830;2022-08-19T22:04:51;25.98;;;18.08;;
35644;SDS011;21764;52.042;6.830;2022-08-19T22:09:52;19.50;;;15.88;;
35644;SDS011;21764;52.042;6.830;2022-08-19T22:14:53;23.65;;;15.70;;
35644;SDS011;21764;52.042;6.830;2022-08-19T22:19:55;20.27;;;15.13;;
35644;SDS011;21764;52.042;6.830;2022-08-19T22:25:05;23.40;;;14.18;;
35644;SDS011;21764;52.042;6.830;2022-08-19T22:30:08;21.30;;;15.20;;
35644;SDS011;21764;52.042;6.830;2022-08-19T22:35:10;19.77;;;14.70;;
35644;SDS011;21764;52.042;6.830;2022-08-19T22:40:12;21.27;;;14.10;;
35644;SDS011;21764;52.042;6.830;2022-08-19T22:45:15;24.75;;;14.40;;
35644;SDS011;21764;52.042;6.830;2022-08-19T22:50:17;18.40;;;14.40;;
35644;SDS011;21764;52.042;6.830;2022-08-19T22:55:17;21.85;;;15.20;;
35644;SDS011;21764;52.042;6.830;2022-08-19T23:00:19;22.42;;;15.27;;
35644;SDS011;21764;52.042;6.830;2022-08-19T23:05:22;19.92;;;15.25;;
35644;SDS011;21764;52.042;6.830;2022-08-19T23:10:25;18.60;;;14.10;;
35644;SDS011;21764;52.042;6.830;2022-08-19T23:15:29;17.00;;;13.27;;
35644;SDS011;21764;52.042;6.830;2022-08-19T23:20:32;15.10;;;12.90;;
35644;SDS011;21764;52.042;6.830;2022-08-19T23:25:35;19.50;;;11.23;;
35644;SDS011;21764;52.042;6.830;2022-08-19T23:30:37;16.15;;;11.68;;
35644;SDS011;21764;52.042;6.830;2022-08-19T23:35:41;16.20;;;10.85;;
35644;SDS011;21764;52.042;6.830;2022-08-19T23:40:42;17.58;;;11.73;;
35644;SDS011;21764;52.042;6.830;2022-08-19T23:45:43;13.40;;;10.23;;
35644;SDS011;21764;52.042;6.830;2022-08-19T23:50:44;14.18;;;10.27;;
35644;SDS011;21764;52.042;6.830;2022-08-19T23:55:45;13.80;;;9.95;;
